首页
METAR-TAF:

METAR-TAF

机场 :

拉纳卡国际机场

拉纳卡, 塞浦路斯

纬度: 34-53N, 经度: 033-38E, 海拔: 2米

当前天气观测

该预报发布于27分钟前的10:30 UTC
风速7节,风向东南
温度 21°C
湿度 60%
气压 1026 hPa
能见度10公里或以上
少量云层高于2500英尺

METAR: LCLK 241030Z 13007KT 9999 FEW025 21/13 Q1026 NOSIG

时间: 13:57 (10:57 UTC)

预报

该预报发布于5小时和27分钟前的05:30 UTC
预报有效从24日的 06点(UTC)到 25日的 06点(UTC)
风速9节,风向东北
能见度10公里或以上
少量云层高于2500英尺
几率 30% :
短暂存在
从 24日的 06点(UTC)到 25日的 06点(UTC)
能見度: 5000
浮尘
成为
从 24日的 09点(UTC)到 24日的 12点(UTC)
风速12节,风向南转西南
成为
从 24日的 16点(UTC)到 24日的 19点(UTC)
风速6节,风向西北

TAF: LCLK 240530Z 2406/2506 04009KT 9999 FEW025 PROB30 TEMPO 2406/2506 5000 DU BECMG 2409/2412 20012KT BECMG 2416/2419 32006KT

超过4000个机场的气象观测和天气预报(METAR&TAF报告)。

可查询的气象台以黄色和红色小点在地图上表示。

将鼠标移到小点上方,可查看气象台名称。

然后点击查看天气观测和预报。

如需切换地图:点击带黑十字的绿色按钮放大地图;点击带横线的绿色按钮缩小地图;或者点击绿色箭头查看邻近地区的地图。


METAR-TAF: